createdAt,value
2022-10-01T00:02:51.417Z,18.68
2022-10-01T00:07:46.295Z,18.70
2022-10-01T00:12:44.648Z,18.75
2022-10-01T00:17:39.549Z,18.15
2022-10-01T00:22:33.304Z,18.72
2022-10-01T00:27:26.876Z,18.71
2022-10-01T00:32:20.080Z,18.72
2022-10-01T00:37:14.634Z,18.45
2022-10-01T00:42:18.492Z,18.59
2022-10-01T00:47:22.273Z,18.71
2022-10-01T00:52:20.316Z,18.47
2022-10-01T00:57:18.147Z,18.59
2022-10-01T01:02:12.001Z,18.67
2022-10-01T01:07:07.206Z,18.69
2022-10-01T01:12:11.849Z,18.53
2022-10-01T01:17:16.637Z,18.02
2022-10-01T01:22:13.573Z,18.47
2022-10-01T01:27:19.674Z,18.18
2022-10-01T01:32:20.678Z,18.31
2022-10-01T01:37:18.939Z,18.26
2022-10-01T01:42:18.450Z,18.04
2022-10-01T01:47:13.435Z,18.09
2022-10-01T01:52:13.639Z,18.07
2022-10-01T01:57:09.211Z,17.66
2022-10-01T02:02:04.334Z,17.99
2022-10-01T02:07:16.316Z,18.27
2022-10-01T02:12:21.644Z,18.08
2022-10-01T02:17:18.348Z,17.89
2022-10-01T02:22:18.051Z,18.28
2022-10-01T02:27:16.836Z,18.31
2022-10-01T02:32:12.312Z,18.61
2022-10-01T02:37:07.794Z,18.82
2022-10-01T02:42:05.133Z,18.87
2022-10-01T02:47:04.115Z,18.84
2022-10-01T02:52:09.172Z,18.51
2022-10-01T02:57:21.044Z,18.32
2022-10-01T03:02:14.662Z,18.08
2022-10-01T03:07:07.875Z,17.93
2022-10-01T03:12:01.239Z,17.93
2022-10-01T03:16:56.199Z,17.85
2022-10-01T03:21:49.536Z,17.80
2022-10-01T03:26:43.039Z,17.57
2022-10-01T03:31:37.270Z,17.57
2022-10-01T03:36:32.305Z,17.40
2022-10-01T03:41:25.692Z,17.13
2022-10-01T03:46:19.383Z,16.99
2022-10-01T03:51:15.592Z,16.99
2022-10-01T03:56:13.752Z,16.82
2022-10-01T04:01:06.982Z,16.63
2022-10-01T04:06:00.218Z,16.74
2022-10-01T04:10:53.461Z,16.63
2022-10-01T04:15:48.822Z,16.63
2022-10-01T04:20:43.109Z,16.39
2022-10-01T04:25:36.646Z,16.16
2022-10-01T04:30:31.957Z,16.34
2022-10-01T04:35:27.409Z,16.38
2022-10-01T04:40:20.690Z,16.02
2022-10-01T04:45:14.181Z,16.25
2022-10-01T04:50:08.065Z,16.35
2022-10-01T04:55:02.644Z,15.68
2022-10-01T04:59:57.150Z,16.28
2022-10-01T05:04:50.352Z,16.47
2022-10-01T05:09:43.722Z,16.13
2022-10-01T05:14:41.191Z,15.69
2022-10-01T05:19:36.016Z,16.68
2022-10-01T05:24:33.759Z,16.80
2022-10-01T05:29:26.981Z,16.79
2022-10-01T05:34:21.611Z,16.94
2022-10-01T05:39:17.051Z,16.93
2022-10-01T05:44:12.584Z,17.35
2022-10-01T05:49:07.804Z,16.68
2022-10-01T05:54:04.475Z,17.75
2022-10-01T05:58:58.560Z,17.93
2022-10-01T06:03:52.907Z,17.71
2022-10-01T06:08:47.004Z,17.81
2022-10-01T06:13:45.326Z,18.21
2022-10-01T06:18:38.814Z,18.41
2022-10-01T06:23:33.784Z,18.49
2022-10-01T06:28:48.710Z,18.95
2022-10-01T06:33:42.055Z,18.92
2022-10-01T06:38:35.678Z,19.01
2022-10-01T06:43:31.395Z,19.09
2022-10-01T06:48:26.476Z,19.32
2022-10-01T06:53:20.163Z,19.65
2022-10-01T06:58:15.670Z,19.31
2022-10-01T07:03:11.258Z,19.85
2022-10-01T07:08:06.732Z,20.33
2022-10-01T07:13:07.736Z,20.21
2022-10-01T07:18:01.353Z,20.98
2022-10-01T07:22:59.414Z,21.16
2022-10-01T07:27:57.845Z,21.53
2022-10-01T07:33:13.824Z,20.65
2022-10-01T07:38:10.299Z,22.32
2022-10-01T07:43:08.493Z,22.30
2022-10-01T07:48:03.609Z,23.08
2022-10-01T07:52:58.319Z,23.56
2022-10-01T07:57:53.544Z,23.06
2022-10-01T08:02:57.362Z,23.54
2022-10-01T08:07:51.574Z,24.37
2022-10-01T08:12:46.421Z,23.58
2022-10-01T08:17:40.266Z,24.61
2022-10-01T08:22:39.760Z,24.50
2022-10-01T08:27:38.745Z,24.28
2022-10-01T08:32:32.320Z,25.49
2022-10-01T08:37:30.048Z,25.27
2022-10-01T08:42:42.121Z,25.87
2022-10-01T08:47:43.971Z,27.16
2022-10-01T08:52:43.030Z,27.80
2022-10-01T08:57:43.069Z,28.43
2022-10-01T09:02:40.810Z,28.93
2022-10-01T09:07:51.008Z,29.76
2022-10-01T09:12:53.905Z,30.57
2022-10-01T09:17:59.674Z,30.53
2022-10-01T09:23:05.556Z,30.20
2022-10-01T09:28:12.797Z,30.22
2022-10-01T09:33:20.882Z,30.76
2022-10-01T09:38:21.464Z,30.33
2022-10-01T09:43:20.229Z,30.18
2022-10-01T09:48:20.822Z,30.19
2022-10-01T09:53:19.985Z,29.94
2022-10-01T09:58:19.434Z,29.55
2022-10-01T10:03:23.905Z,29.92
2022-10-01T10:08:22.330Z,29.88
2022-10-01T10:13:24.658Z,29.78
2022-10-01T10:18:25.335Z,29.65
2022-10-01T10:23:23.419Z,29.56
2022-10-01T10:28:23.899Z,29.61
2022-10-01T10:33:18.491Z,29.25
2022-10-01T10:38:19.163Z,29.40
2022-10-01T10:43:23.079Z,29.46
2022-10-01T10:48:21.254Z,29.32
2022-10-01T10:53:22.557Z,29.17
2022-10-01T10:58:16.618Z,29.09
2022-10-01T11:03:18.493Z,29.08
2022-10-01T11:08:17.919Z,29.24
2022-10-01T11:13:27.986Z,29.17
2022-10-01T11:18:46.458Z,28.61
2022-10-01T11:24:07.849Z,28.86
2022-10-01T11:29:17.721Z,28.90
2022-10-01T11:34:50.462Z,28.83
2022-10-01T11:39:48.522Z,28.42
2022-10-01T11:44:50.317Z,28.59
2022-10-01T11:49:52.068Z,28.62
2022-10-01T11:54:56.791Z,27.94
2022-10-01T11:59:54.656Z,28.63
2022-10-01T12:04:53.790Z,28.40
2022-10-01T12:09:50.429Z,28.75
2022-10-01T12:14:52.720Z,28.67
2022-10-01T12:19:51.690Z,28.84
2022-10-01T12:24:46.135Z,28.97
2022-10-01T12:29:47.706Z,29.03
2022-10-01T12:34:53.303Z,29.09
2022-10-01T12:40:04.124Z,28.95
2022-10-01T12:45:06.889Z,28.71
2022-10-01T12:50:11.551Z,29.40
2022-10-01T12:55:35.463Z,29.52
2022-10-01T13:00:36.207Z,31.09
2022-10-01T13:05:38.826Z,31.82
2022-10-01T13:10:48.871Z,31.43
2022-10-01T13:15:47.761Z,31.11
2022-10-01T13:20:51.736Z,31.07
2022-10-01T13:25:59.342Z,30.79
2022-10-01T13:30:59.285Z,30.31
2022-10-01T13:36:04.455Z,30.09
2022-10-01T13:41:01.470Z,30.24
2022-10-01T13:45:56.540Z,30.12
2022-10-01T13:51:01.074Z,29.51
2022-10-01T13:55:57.004Z,30.07
2022-10-01T14:00:53.617Z,29.46
2022-10-01T14:05:48.578Z,29.27
2022-10-01T14:11:00.588Z,29.31
2022-10-01T14:16:02.851Z,29.19
2022-10-01T14:21:19.197Z,28.76
2022-10-01T14:26:21.410Z,28.67
2022-10-01T14:31:24.014Z,28.49
2022-10-01T14:36:19.916Z,28.50
2022-10-01T14:41:19.911Z,28.57
2022-10-01T14:46:16.865Z,28.56
2022-10-01T14:51:25.648Z,28.62
2022-10-01T14:56:19.164Z,28.57
2022-10-01T15:01:18.954Z,28.24
2022-10-01T15:06:14.893Z,28.15
2022-10-01T15:11:11.608Z,27.87
2022-10-01T15:16:16.018Z,27.28
2022-10-01T15:21:18.892Z,27.56
2022-10-01T15:26:20.905Z,27.61
2022-10-01T15:31:15.721Z,27.33
2022-10-01T15:36:17.613Z,27.53
2022-10-01T15:41:31.667Z,27.55
2022-10-01T15:46:33.212Z,27.62
2022-10-01T15:51:30.124Z,27.37
2022-10-01T15:56:25.375Z,27.21
2022-10-01T16:01:22.606Z,27.18
2022-10-01T16:06:19.980Z,27.24
2022-10-01T16:11:21.560Z,26.77
2022-10-01T16:16:30.631Z,27.02
2022-10-01T16:21:24.591Z,26.81
2022-10-01T16:26:37.812Z,26.79
2022-10-01T16:31:31.805Z,26.71
2022-10-01T16:36:26.533Z,26.65
2022-10-01T16:41:23.606Z,25.70
2022-10-01T16:46:18.328Z,26.09
2022-10-01T16:51:12.463Z,26.43
2022-10-01T16:56:05.647Z,26.45
2022-10-01T17:00:58.909Z,25.85
2022-10-01T17:05:53.719Z,26.32
2022-10-01T17:10:50.874Z,26.37
2022-10-01T17:15:44.480Z,26.09
2022-10-01T17:20:39.352Z,26.12
2022-10-01T17:25:38.495Z,25.75
2022-10-01T17:30:32.857Z,25.89
2022-10-01T17:35:28.367Z,25.61
2022-10-01T17:40:21.766Z,25.45
2022-10-01T17:45:16.369Z,24.53
2022-10-01T17:50:10.055Z,25.06
2022-10-01T17:55:03.335Z,25.20
2022-10-01T17:59:56.515Z,24.95
2022-10-01T18:04:51.109Z,24.78
2022-10-01T18:09:46.102Z,25.27
2022-10-01T18:14:39.801Z,25.06
2022-10-01T18:24:47.655Z,25.14
2022-10-01T18:29:40.877Z,25.19
2022-10-01T18:34:40.182Z,25.08
2022-10-01T18:39:42.144Z,24.94
2022-10-01T18:44:36.706Z,24.00
2022-10-01T18:49:53.354Z,24.61
2022-10-01T18:55:01.218Z,24.44
2022-10-01T19:00:04.343Z,23.95
2022-10-01T19:05:25.034Z,23.89
2022-10-01T19:10:28.042Z,23.79
2022-10-01T19:15:37.384Z,23.66
2022-10-01T19:20:49.971Z,23.57
2022-10-01T19:25:51.330Z,23.08
2022-10-01T19:30:58.121Z,23.29
2022-10-01T19:35:56.530Z,22.97
2022-10-01T19:40:57.226Z,23.02
2022-10-01T19:45:58.129Z,22.89
2022-10-01T19:50:56.984Z,22.77
2022-10-01T19:55:52.805Z,22.71
2022-10-01T20:00:53.697Z,22.49
2022-10-01T20:05:55.448Z,22.48
2022-10-01T20:10:55.999Z,22.67
2022-10-01T20:15:57.589Z,22.87
2022-10-01T20:21:06.561Z,22.92
2022-10-01T20:26:11.749Z,22.42
2022-10-01T20:31:16.232Z,22.94
2022-10-01T20:36:17.111Z,23.06
2022-10-01T20:41:15.719Z,23.12
2022-10-01T20:46:15.160Z,22.39
2022-10-01T20:51:18.975Z,23.13
2022-10-01T20:56:17.447Z,23.12
2022-10-01T21:01:18.633Z,23.06
2022-10-01T21:06:19.325Z,23.38
2022-10-01T21:11:22.759Z,23.40
2022-10-01T21:16:45.388Z,23.44
2022-10-01T21:21:46.158Z,23.27
2022-10-01T21:26:55.487Z,23.06
2022-10-01T21:32:02.848Z,23.54
2022-10-01T21:37:05.297Z,22.81
2022-10-01T21:42:11.312Z,22.38
2022-10-01T21:47:11.519Z,21.73
2022-10-01T21:52:16.156Z,20.78
2022-10-01T21:57:31.100Z,20.57
2022-10-01T22:02:37.925Z,20.53
2022-10-01T22:07:38.122Z,20.55
2022-10-01T22:12:36.305Z,20.24
2022-10-01T22:17:34.807Z,20.40
2022-10-01T22:22:31.765Z,20.19
2022-10-01T22:27:32.230Z,20.25
2022-10-01T22:32:31.787Z,20.22
2022-10-01T22:37:29.980Z,19.81
2022-10-01T22:42:29.776Z,20.37
2022-10-01T22:47:38.428Z,20.36
2022-10-01T22:52:39.298Z,19.80
2022-10-01T22:57:50.643Z,20.20
2022-10-01T23:02:55.978Z,20.23
2022-10-01T23:07:59.368Z,20.19
2022-10-01T23:13:17.171Z,19.95
2022-10-01T23:18:29.411Z,20.16
2022-10-01T23:23:31.168Z,19.98
2022-10-01T23:28:37.136Z,19.92
2022-10-01T23:33:50.750Z,20.04
2022-10-01T23:39:01.877Z,20.12
2022-10-01T23:44:06.622Z,20.12
2022-10-01T23:49:06.496Z,19.97
2022-10-01T23:54:03.899Z,20.13
2022-10-01T23:59:03.152Z,19.94
